sensor_id;sensor_type;location;lat;lon;timestamp;P1;durP1;ratioP1;P2;durP2;ratioP2
63534;SDS011;55128;50.230;18.944;2023-08-08T00:04:09;1.77;;;0.80;;
63534;SDS011;55128;50.230;18.944;2023-08-08T00:09:10;3.35;;;0.90;;
63534;SDS011;55128;50.230;18.944;2023-08-08T00:14:10;3.95;;;0.80;;
63534;SDS011;55128;50.230;18.944;2023-08-08T00:19:10;1.77;;;0.80;;
63534;SDS011;55128;50.230;18.944;2023-08-08T00:24:11;1.50;;;0.90;;
63534;SDS011;55128;50.230;18.944;2023-08-08T00:29:11;2.13;;;0.83;;
63534;SDS011;55128;50.230;18.944;2023-08-08T00:34:11;3.53;;;1.00;;
63534;SDS011;55128;50.230;18.944;2023-08-08T00:39:12;4.07;;;0.90;;
63534;SDS011;55128;50.230;18.944;2023-08-08T00:44:12;2.22;;;0.80;;
63534;SDS011;55128;50.230;18.944;2023-08-08T00:49:12;0.98;;;0.60;;
63534;SDS011;55128;50.230;18.944;2023-08-08T00:54:13;1.67;;;0.90;;
63534;SDS011;55128;50.230;18.944;2023-08-08T00:59:13;2.60;;;0.95;;
63534;SDS011;55128;50.230;18.944;2023-08-08T01:04:16;1.88;;;0.90;;
63534;SDS011;55128;50.230;18.944;2023-08-08T01:09:24;4.18;;;1.00;;
63534;SDS011;55128;50.230;18.944;2023-08-08T01:14:29;1.50;;;0.90;;
63534;SDS011;55128;50.230;18.944;2023-08-08T01:24:34;1.95;;;0.90;;
63534;SDS011;55128;50.230;18.944;2023-08-08T01:29:37;2.30;;;1.00;;
63534;SDS011;55128;50.230;18.944;2023-08-08T01:34:39;2.55;;;0.90;;
63534;SDS011;55128;50.230;18.944;2023-08-08T01:39:39;5.22;;;1.05;;
63534;SDS011;55128;50.230;18.944;2023-08-08T01:44:41;2.08;;;1.02;;
63534;SDS011;55128;50.230;18.944;2023-08-08T01:49:41;7.78;;;3.35;;
63534;SDS011;55128;50.230;18.944;2023-08-08T01:54:42;4.07;;;2.33;;
63534;SDS011;55128;50.230;18.944;2023-08-08T01:59:44;5.20;;;3.95;;
63534;SDS011;55128;50.230;18.944;2023-08-08T02:04:45;4.38;;;1.52;;
63534;SDS011;55128;50.230;18.944;2023-08-08T02:09:45;4.35;;;1.85;;
63534;SDS011;55128;50.230;18.944;2023-08-08T02:14:46;3.67;;;2.77;;
63534;SDS011;55128;50.230;18.944;2023-08-08T02:19:46;5.13;;;2.50;;
63534;SDS011;55128;50.230;18.944;2023-08-08T02:24:46;3.33;;;2.13;;
63534;SDS011;55128;50.230;18.944;2023-08-08T02:29:47;3.72;;;2.25;;
63534;SDS011;55128;50.230;18.944;2023-08-08T02:34:47;4.70;;;2.50;;
63534;SDS011;55128;50.230;18.944;2023-08-08T02:39:47;5.55;;;2.42;;
63534;SDS011;55128;50.230;18.944;2023-08-08T02:44:48;3.78;;;2.20;;
63534;SDS011;55128;50.230;18.944;2023-08-08T02:49:48;4.00;;;2.20;;
63534;SDS011;55128;50.230;18.944;2023-08-08T02:54:48;4.97;;;2.70;;
63534;SDS011;55128;50.230;18.944;2023-08-08T02:59:49;4.72;;;2.97;;
63534;SDS011;55128;50.230;18.944;2023-08-08T03:04:49;4.53;;;2.88;;
63534;SDS011;55128;50.230;18.944;2023-08-08T03:09:49;3.15;;;2.67;;
63534;SDS011;55128;50.230;18.944;2023-08-08T03:14:50;6.33;;;2.90;;
63534;SDS011;55128;50.230;18.944;2023-08-08T03:19:50;4.00;;;3.40;;
63534;SDS011;55128;50.230;18.944;2023-08-08T03:24:50;5.47;;;3.35;;
63534;SDS011;55128;50.230;18.944;2023-08-08T03:29:51;6.47;;;3.45;;
63534;SDS011;55128;50.230;18.944;2023-08-08T03:34:51;4.03;;;2.70;;
63534;SDS011;55128;50.230;18.944;2023-08-08T03:39:52;3.78;;;2.40;;
63534;SDS011;55128;50.230;18.944;2023-08-08T03:44:52;4.67;;;2.40;;
63534;SDS011;55128;50.230;18.944;2023-08-08T03:49:55;6.18;;;2.28;;
63534;SDS011;55128;50.230;18.944;2023-08-08T03:54:57;3.65;;;2.20;;
63534;SDS011;55128;50.230;18.944;2023-08-08T03:59:57;6.18;;;2.53;;
63534;SDS011;55128;50.230;18.944;2023-08-08T04:04:58;3.40;;;2.47;;
63534;SDS011;55128;50.230;18.944;2023-08-08T04:09:58;4.63;;;2.65;;
63534;SDS011;55128;50.230;18.944;2023-08-08T04:14:58;4.17;;;2.37;;
63534;SDS011;55128;50.230;18.944;2023-08-08T04:19:59;6.23;;;2.50;;
63534;SDS011;55128;50.230;18.944;2023-08-08T04:24:59;5.45;;;3.83;;
63534;SDS011;55128;50.230;18.944;2023-08-08T04:29:59;5.93;;;2.50;;
63534;SDS011;55128;50.230;18.944;2023-08-08T04:35:00;4.22;;;2.50;;
63534;SDS011;55128;50.230;18.944;2023-08-08T04:40:00;7.80;;;2.60;;
63534;SDS011;55128;50.230;18.944;2023-08-08T04:45:00;3.90;;;2.60;;
63534;SDS011;55128;50.230;18.944;2023-08-08T04:50:01;4.47;;;2.43;;
63534;SDS011;55128;50.230;18.944;2023-08-08T04:55:01;4.22;;;2.67;;
63534;SDS011;55128;50.230;18.944;2023-08-08T05:00:02;4.10;;;2.47;;
63534;SDS011;55128;50.230;18.944;2023-08-08T05:05:05;6.30;;;4.35;;
63534;SDS011;55128;50.230;18.944;2023-08-08T05:10:06;3.97;;;2.65;;
63534;SDS011;55128;50.230;18.944;2023-08-08T05:15:06;4.30;;;3.17;;
63534;SDS011;55128;50.230;18.944;2023-08-08T05:20:07;4.03;;;2.92;;
63534;SDS011;55128;50.230;18.944;2023-08-08T05:25:09;4.13;;;3.00;;
63534;SDS011;55128;50.230;18.944;2023-08-08T05:30:10;5.45;;;3.03;;
63534;SDS011;55128;50.230;18.944;2023-08-08T05:35:10;4.55;;;2.78;;
63534;SDS011;55128;50.230;18.944;2023-08-08T05:40:11;7.50;;;4.75;;
63534;SDS011;55128;50.230;18.944;2023-08-08T05:45:11;4.30;;;1.90;;
63534;SDS011;55128;50.230;18.944;2023-08-08T05:50:12;5.00;;;2.03;;
63534;SDS011;55128;50.230;18.944;2023-08-08T05:55:13;4.13;;;1.73;;
63534;SDS011;55128;50.230;18.944;2023-08-08T06:00:13;3.75;;;1.38;;
63534;SDS011;55128;50.230;18.944;2023-08-08T06:05:19;4.40;;;3.63;;
63534;SDS011;55128;50.230;18.944;2023-08-08T06:10:22;3.50;;;1.60;;
63534;SDS011;55128;50.230;18.944;2023-08-08T06:15:22;3.38;;;1.50;;
63534;SDS011;55128;50.230;18.944;2023-08-08T06:20:23;3.63;;;1.50;;
63534;SDS011;55128;50.230;18.944;2023-08-08T06:25:23;3.70;;;1.73;;
63534;SDS011;55128;50.230;18.944;2023-08-08T06:30:23;4.03;;;1.60;;
63534;SDS011;55128;50.230;18.944;2023-08-08T06:35:24;5.23;;;1.40;;
63534;SDS011;55128;50.230;18.944;2023-08-08T06:40:24;3.63;;;1.45;;
63534;SDS011;55128;50.230;18.944;2023-08-08T06:45:25;3.65;;;1.60;;
63534;SDS011;55128;50.230;18.944;2023-08-08T06:50:25;3.10;;;1.30;;
63534;SDS011;55128;50.230;18.944;2023-08-08T06:55:25;3.65;;;1.45;;
63534;SDS011;55128;50.230;18.944;2023-08-08T07:00:26;3.88;;;1.75;;
63534;SDS011;55128;50.230;18.944;2023-08-08T07:05:27;3.03;;;1.30;;
63534;SDS011;55128;50.230;18.944;2023-08-08T07:10:28;3.87;;;1.40;;
63534;SDS011;55128;50.230;18.944;2023-08-08T07:15:28;4.00;;;1.43;;
63534;SDS011;55128;50.230;18.944;2023-08-08T07:20:28;3.63;;;1.30;;
63534;SDS011;55128;50.230;18.944;2023-08-08T07:25:29;2.42;;;1.13;;
63534;SDS011;55128;50.230;18.944;2023-08-08T07:30:29;4.17;;;1.40;;
63534;SDS011;55128;50.230;18.944;2023-08-08T07:35:29;4.85;;;1.40;;
63534;SDS011;55128;50.230;18.944;2023-08-08T07:40:30;2.60;;;1.50;;
63534;SDS011;55128;50.230;18.944;2023-08-08T07:45:30;2.50;;;1.30;;
63534;SDS011;55128;50.230;18.944;2023-08-08T07:50:31;2.63;;;1.13;;
63534;SDS011;55128;50.230;18.944;2023-08-08T07:55:31;5.88;;;1.50;;
63534;SDS011;55128;50.230;18.944;2023-08-08T08:00:32;2.30;;;1.30;;
63534;SDS011;55128;50.230;18.944;2023-08-08T08:05:35;4.07;;;1.52;;
63534;SDS011;55128;50.230;18.944;2023-08-08T08:10:36;3.40;;;1.35;;
63534;SDS011;55128;50.230;18.944;2023-08-08T08:15:36;3.57;;;2.10;;
63534;SDS011;55128;50.230;18.944;2023-08-08T08:20:36;2.77;;;1.53;;
63534;SDS011;55128;50.230;18.944;2023-08-08T08:25:37;2.40;;;1.10;;
63534;SDS011;55128;50.230;18.944;2023-08-08T08:30:37;3.77;;;1.37;;
63534;SDS011;55128;50.230;18.944;2023-08-08T08:35:37;3.03;;;1.20;;
63534;SDS011;55128;50.230;18.944;2023-08-08T08:40:38;1.93;;;1.20;;
63534;SDS011;55128;50.230;18.944;2023-08-08T08:45:42;3.30;;;0.95;;
63534;SDS011;55128;50.230;18.944;2023-08-08T08:50:47;1.88;;;1.20;;
63534;SDS011;55128;50.230;18.944;2023-08-08T08:55:48;1.98;;;1.27;;
63534;SDS011;55128;50.230;18.944;2023-08-08T09:00:50;6.75;;;5.70;;
63534;SDS011;55128;50.230;18.944;2023-08-08T09:05:52;3.70;;;2.30;;
63534;SDS011;55128;50.230;18.944;2023-08-08T09:10:54;2.78;;;1.60;;
63534;SDS011;55128;50.230;18.944;2023-08-08T09:15:56;2.92;;;1.42;;
63534;SDS011;55128;50.230;18.944;2023-08-08T09:20:57;3.13;;;1.40;;
63534;SDS011;55128;50.230;18.944;2023-08-08T09:25:58;4.55;;;1.48;;
63534;SDS011;55128;50.230;18.944;2023-08-08T09:30:58;5.55;;;3.78;;
63534;SDS011;55128;50.230;18.944;2023-08-08T09:35:59;4.00;;;1.80;;
63534;SDS011;55128;50.230;18.944;2023-08-08T09:40:59;2.57;;;1.37;;
63534;SDS011;55128;50.230;18.944;2023-08-08T09:46:00;3.58;;;1.60;;
63534;SDS011;55128;50.230;18.944;2023-08-08T09:51:01;5.68;;;1.60;;
63534;SDS011;55128;50.230;18.944;2023-08-08T09:56:03;5.63;;;1.20;;
63534;SDS011;55128;50.230;18.944;2023-08-08T10:01:04;2.38;;;1.45;;
63534;SDS011;55128;50.230;18.944;2023-08-08T10:06:05;2.38;;;1.00;;
63534;SDS011;55128;50.230;18.944;2023-08-08T10:11:05;2.93;;;1.30;;
63534;SDS011;55128;50.230;18.944;2023-08-08T10:21:09;2.27;;;1.00;;
63534;SDS011;55128;50.230;18.944;2023-08-08T10:26:19;2.38;;;1.23;;
63534;SDS011;55128;50.230;18.944;2023-08-08T10:31:20;2.65;;;1.10;;
63534;SDS011;55128;50.230;18.944;2023-08-08T10:36:21;3.78;;;1.40;;
63534;SDS011;55128;50.230;18.944;2023-08-08T10:41:26;3.20;;;1.27;;
63534;SDS011;55128;50.230;18.944;2023-08-08T10:46:27;4.55;;;1.08;;
63534;SDS011;55128;50.230;18.944;2023-08-08T10:56:38;4.00;;;1.23;;
63534;SDS011;55128;50.230;18.944;2023-08-08T11:01:39;3.20;;;1.20;;
63534;SDS011;55128;50.230;18.944;2023-08-08T11:06:40;3.47;;;0.85;;
63534;SDS011;55128;50.230;18.944;2023-08-08T11:11:41;3.95;;;1.27;;
63534;SDS011;55128;50.230;18.944;2023-08-08T11:16:43;2.97;;;1.30;;
63534;SDS011;55128;50.230;18.944;2023-08-08T11:21:46;1.65;;;1.13;;
63534;SDS011;55128;50.230;18.944;2023-08-08T11:26:48;1.85;;;0.90;;
63534;SDS011;55128;50.230;18.944;2023-08-08T11:31:49;2.90;;;1.00;;
63534;SDS011;55128;50.230;18.944;2023-08-08T11:36:49;2.22;;;1.00;;
63534;SDS011;55128;50.230;18.944;2023-08-08T11:41:50;2.53;;;0.93;;
63534;SDS011;55128;50.230;18.944;2023-08-08T11:46:51;2.83;;;1.00;;
63534;SDS011;55128;50.230;18.944;2023-08-08T11:51:53;2.03;;;1.00;;
63534;SDS011;55128;50.230;18.944;2023-08-08T11:56:57;3.10;;;1.00;;
63534;SDS011;55128;50.230;18.944;2023-08-08T12:01:57;1.53;;;0.90;;
63534;SDS011;55128;50.230;18.944;2023-08-08T12:07:02;4.10;;;1.00;;
63534;SDS011;55128;50.230;18.944;2023-08-08T12:12:03;5.00;;;1.20;;
63534;SDS011;55128;50.230;18.944;2023-08-08T12:17:04;3.92;;;0.95;;
63534;SDS011;55128;50.230;18.944;2023-08-08T12:22:05;2.45;;;1.15;;
63534;SDS011;55128;50.230;18.944;2023-08-08T12:27:05;2.63;;;1.27;;
63534;SDS011;55128;50.230;18.944;2023-08-08T12:32:06;2.45;;;1.05;;
63534;SDS011;55128;50.230;18.944;2023-08-08T12:37:08;3.42;;;2.70;;
63534;SDS011;55128;50.230;18.944;2023-08-08T12:42:08;4.07;;;1.55;;
63534;SDS011;55128;50.230;18.944;2023-08-08T12:47:08;2.13;;;1.00;;
63534;SDS011;55128;50.230;18.944;2023-08-08T12:52:09;2.03;;;1.10;;
63534;SDS011;55128;50.230;18.944;2023-08-08T12:57:09;2.00;;;1.05;;
63534;SDS011;55128;50.230;18.944;2023-08-08T13:02:09;3.93;;;1.10;;
63534;SDS011;55128;50.230;18.944;2023-08-08T13:07:10;1.97;;;1.00;;
63534;SDS011;55128;50.230;18.944;2023-08-08T13:12:10;2.90;;;0.80;;
63534;SDS011;55128;50.230;18.944;2023-08-08T13:17:10;1.73;;;1.00;;
63534;SDS011;55128;50.230;18.944;2023-08-08T13:22:11;3.38;;;1.30;;
63534;SDS011;55128;50.230;18.944;2023-08-08T13:27:12;2.17;;;0.93;;
63534;SDS011;55128;50.230;18.944;2023-08-08T13:32:13;3.13;;;1.13;;
63534;SDS011;55128;50.230;18.944;2023-08-08T13:37:13;2.57;;;0.87;;
63534;SDS011;55128;50.230;18.944;2023-08-08T13:42:13;2.43;;;1.33;;
63534;SDS011;55128;50.230;18.944;2023-08-08T13:47:14;2.70;;;1.23;;
63534;SDS011;55128;50.230;18.944;2023-08-08T13:52:14;2.33;;;1.10;;
63534;SDS011;55128;50.230;18.944;2023-08-08T13:57:15;2.25;;;1.02;;
63534;SDS011;55128;50.230;18.944;2023-08-08T14:02:15;3.63;;;1.40;;
63534;SDS011;55128;50.230;18.944;2023-08-08T14:07:18;3.65;;;1.20;;
63534;SDS011;55128;50.230;18.944;2023-08-08T14:12:18;4.60;;;1.50;;
63534;SDS011;55128;50.230;18.944;2023-08-08T14:17:19;2.42;;;1.27;;
63534;SDS011;55128;50.230;18.944;2023-08-08T14:22:19;2.00;;;1.10;;
63534;SDS011;55128;50.230;18.944;2023-08-08T14:27:19;1.55;;;0.95;;
63534;SDS011;55128;50.230;18.944;2023-08-08T14:32:20;4.25;;;1.30;;
63534;SDS011;55128;50.230;18.944;2023-08-08T14:37:20;2.33;;;1.20;;
63534;SDS011;55128;50.230;18.944;2023-08-08T14:42:21;2.45;;;1.20;;
63534;SDS011;55128;50.230;18.944;2023-08-08T14:47:21;3.23;;;1.40;;
63534;SDS011;55128;50.230;18.944;2023-08-08T14:52:22;1.55;;;1.05;;
63534;SDS011;55128;50.230;18.944;2023-08-08T14:57:22;2.37;;;1.30;;
63534;SDS011;55128;50.230;18.944;2023-08-08T15:02:22;3.35;;;1.38;;
63534;SDS011;55128;50.230;18.944;2023-08-08T15:07:23;3.08;;;1.25;;
63534;SDS011;55128;50.230;18.944;2023-08-08T15:12:23;3.08;;;1.20;;
63534;SDS011;55128;50.230;18.944;2023-08-08T15:17:23;3.00;;;1.03;;
63534;SDS011;55128;50.230;18.944;2023-08-08T15:22:24;2.07;;;1.40;;
63534;SDS011;55128;50.230;18.944;2023-08-08T15:27:24;3.00;;;1.70;;
63534;SDS011;55128;50.230;18.944;2023-08-08T15:32:25;3.00;;;1.70;;
63534;SDS011;55128;50.230;18.944;2023-08-08T15:37:25;2.78;;;1.63;;
63534;SDS011;55128;50.230;18.944;2023-08-08T15:42:25;2.30;;;1.50;;
63534;SDS011;55128;50.230;18.944;2023-08-08T15:47:27;3.00;;;1.70;;
63534;SDS011;55128;50.230;18.944;2023-08-08T15:52:28;3.33;;;1.83;;
63534;SDS011;55128;50.230;18.944;2023-08-08T15:57:28;5.35;;;1.90;;
63534;SDS011;55128;50.230;18.944;2023-08-08T16:02:28;3.37;;;1.73;;
63534;SDS011;55128;50.230;18.944;2023-08-08T16:07:29;5.18;;;2.35;;
63534;SDS011;55128;50.230;18.944;2023-08-08T16:12:29;2.70;;;2.20;;
63534;SDS011;55128;50.230;18.944;2023-08-08T16:17:30;3.05;;;2.10;;
63534;SDS011;55128;50.230;18.944;2023-08-08T16:22:30;3.55;;;2.20;;
63534;SDS011;55128;50.230;18.944;2023-08-08T16:27:31;4.25;;;1.90;;
63534;SDS011;55128;50.230;18.944;2023-08-08T16:32:31;3.03;;;2.20;;
63534;SDS011;55128;50.230;18.944;2023-08-08T16:37:32;3.93;;;2.20;;
63534;SDS011;55128;50.230;18.944;2023-08-08T16:42:32;3.17;;;1.90;;
63534;SDS011;55128;50.230;18.944;2023-08-08T16:47:32;2.30;;;1.40;;
63534;SDS011;55128;50.230;18.944;2023-08-08T16:52:33;3.53;;;1.90;;
63534;SDS011;55128;50.230;18.944;2023-08-08T16:57:34;2.17;;;1.67;;
63534;SDS011;55128;50.230;18.944;2023-08-08T17:02:34;3.17;;;1.63;;
63534;SDS011;55128;50.230;18.944;2023-08-08T17:07:36;4.25;;;2.00;;
63534;SDS011;55128;50.230;18.944;2023-08-08T17:12:37;2.00;;;1.50;;
63534;SDS011;55128;50.230;18.944;2023-08-08T17:17:37;2.40;;;1.60;;
63534;SDS011;55128;50.230;18.944;2023-08-08T17:22:37;2.55;;;1.63;;
63534;SDS011;55128;50.230;18.944;2023-08-08T17:27:38;4.55;;;1.55;;
63534;SDS011;55128;50.230;18.944;2023-08-08T17:32:38;2.05;;;1.52;;
63534;SDS011;55128;50.230;18.944;2023-08-08T17:37:39;2.90;;;1.70;;
63534;SDS011;55128;50.230;18.944;2023-08-08T17:42:39;3.07;;;2.07;;
63534;SDS011;55128;50.230;18.944;2023-08-08T17:47:41;3.80;;;2.00;;
63534;SDS011;55128;50.230;18.944;2023-08-08T17:52:41;2.93;;;1.80;;
63534;SDS011;55128;50.230;18.944;2023-08-08T17:57:41;3.80;;;1.90;;
63534;SDS011;55128;50.230;18.944;2023-08-08T18:02:42;2.97;;;1.85;;
63534;SDS011;55128;50.230;18.944;2023-08-08T18:07:42;3.78;;;1.90;;
63534;SDS011;55128;50.230;18.944;2023-08-08T18:12:43;3.45;;;2.13;;
63534;SDS011;55128;50.230;18.944;2023-08-08T18:17:44;3.67;;;2.47;;
63534;SDS011;55128;50.230;18.944;2023-08-08T18:22:44;2.83;;;2.00;;
63534;SDS011;55128;50.230;18.944;2023-08-08T18:27:45;2.33;;;1.97;;
63534;SDS011;55128;50.230;18.944;2023-08-08T18:32:45;3.42;;;2.00;;
63534;SDS011;55128;50.230;18.944;2023-08-08T18:37:45;2.67;;;1.95;;
63534;SDS011;55128;50.230;18.944;2023-08-08T18:42:46;3.37;;;2.50;;
63534;SDS011;55128;50.230;18.944;2023-08-08T18:47:47;4.43;;;2.25;;
63534;SDS011;55128;50.230;18.944;2023-08-08T18:52:47;4.03;;;2.63;;
63534;SDS011;55128;50.230;18.944;2023-08-08T18:57:48;4.00;;;2.50;;
63534;SDS011;55128;50.230;18.944;2023-08-08T19:02:48;3.92;;;2.58;;
63534;SDS011;55128;50.230;18.944;2023-08-08T19:07:48;3.87;;;2.73;;
63534;SDS011;55128;50.230;18.944;2023-08-08T19:12:49;4.65;;;3.10;;
63534;SDS011;55128;50.230;18.944;2023-08-08T19:17:49;4.50;;;2.60;;
63534;SDS011;55128;50.230;18.944;2023-08-08T19:22:50;6.82;;;3.08;;
63534;SDS011;55128;50.230;18.944;2023-08-08T19:27:51;5.45;;;3.70;;
63534;SDS011;55128;50.230;18.944;2023-08-08T19:32:51;6.32;;;3.80;;
63534;SDS011;55128;50.230;18.944;2023-08-08T19:37:51;5.53;;;3.93;;
63534;SDS011;55128;50.230;18.944;2023-08-08T19:42:52;6.00;;;3.80;;
63534;SDS011;55128;50.230;18.944;2023-08-08T19:47:54;5.15;;;3.70;;
63534;SDS011;55128;50.230;18.944;2023-08-08T19:52:54;7.55;;;3.65;;
63534;SDS011;55128;50.230;18.944;2023-08-08T19:57:56;4.83;;;3.70;;
63534;SDS011;55128;50.230;18.944;2023-08-08T20:02:59;5.47;;;3.42;;
63534;SDS011;55128;50.230;18.944;2023-08-08T20:08:00;6.15;;;3.28;;
63534;SDS011;55128;50.230;18.944;2023-08-08T20:13:01;4.97;;;3.50;;
63534;SDS011;55128;50.230;18.944;2023-08-08T20:18:02;5.20;;;3.05;;
63534;SDS011;55128;50.230;18.944;2023-08-08T20:23:03;5.28;;;3.28;;
63534;SDS011;55128;50.230;18.944;2023-08-08T20:28:05;4.90;;;2.88;;
63534;SDS011;55128;50.230;18.944;2023-08-08T20:33:05;6.28;;;2.90;;
63534;SDS011;55128;50.230;18.944;2023-08-08T20:38:06;4.78;;;2.75;;
63534;SDS011;55128;50.230;18.944;2023-08-08T20:43:06;3.53;;;2.50;;
63534;SDS011;55128;50.230;18.944;2023-08-08T20:48:07;3.63;;;2.63;;
63534;SDS011;55128;50.230;18.944;2023-08-08T20:53:08;4.78;;;2.42;;
63534;SDS011;55128;50.230;18.944;2023-08-08T20:58:10;3.60;;;2.30;;
63534;SDS011;55128;50.230;18.944;2023-08-08T21:03:11;4.60;;;2.43;;
63534;SDS011;55128;50.230;18.944;2023-08-08T21:08:11;4.45;;;2.30;;
63534;SDS011;55128;50.230;18.944;2023-08-08T21:13:11;4.57;;;2.60;;
63534;SDS011;55128;50.230;18.944;2023-08-08T21:18:12;2.90;;;2.10;;
63534;SDS011;55128;50.230;18.944;2023-08-08T21:23:12;2.83;;;2.00;;
63534;SDS011;55128;50.230;18.944;2023-08-08T21:28:13;3.50;;;2.17;;
63534;SDS011;55128;50.230;18.944;2023-08-08T21:33:13;3.40;;;1.83;;
63534;SDS011;55128;50.230;18.944;2023-08-08T21:38:14;2.70;;;1.80;;
63534;SDS011;55128;50.230;18.944;2023-08-08T21:43:14;2.80;;;1.40;;
63534;SDS011;55128;50.230;18.944;2023-08-08T21:48:14;3.43;;;2.03;;
63534;SDS011;55128;50.230;18.944;2023-08-08T21:53:15;3.07;;;1.67;;
63534;SDS011;55128;50.230;18.944;2023-08-08T21:58:15;1.83;;;1.33;;
63534;SDS011;55128;50.230;18.944;2023-08-08T22:03:15;2.83;;;1.15;;
63534;SDS011;55128;50.230;18.944;2023-08-08T22:08:16;1.53;;;1.00;;
63534;SDS011;55128;50.230;18.944;2023-08-08T22:13:17;2.38;;;1.27;;
63534;SDS011;55128;50.230;18.944;2023-08-08T22:18:18;3.20;;;1.43;;
63534;SDS011;55128;50.230;18.944;2023-08-08T22:23:18;2.42;;;1.10;;
63534;SDS011;55128;50.230;18.944;2023-08-08T22:28:19;2.03;;;1.20;;
63534;SDS011;55128;50.230;18.944;2023-08-08T22:33:20;2.42;;;1.45;;
63534;SDS011;55128;50.230;18.944;2023-08-08T22:38:20;2.15;;;1.20;;
63534;SDS011;55128;50.230;18.944;2023-08-08T22:43:20;2.47;;;1.40;;
63534;SDS011;55128;50.230;18.944;2023-08-08T22:48:21;1.63;;;1.10;;
63534;SDS011;55128;50.230;18.944;2023-08-08T22:53:21;2.03;;;1.40;;
63534;SDS011;55128;50.230;18.944;2023-08-08T22:58:22;2.47;;;1.33;;
63534;SDS011;55128;50.230;18.944;2023-08-08T23:03:22;3.45;;;1.40;;
63534;SDS011;55128;50.230;18.944;2023-08-08T23:08:25;2.53;;;1.10;;
63534;SDS011;55128;50.230;18.944;2023-08-08T23:13:26;2.28;;;1.35;;
63534;SDS011;55128;50.230;18.944;2023-08-08T23:18:27;2.35;;;1.38;;
63534;SDS011;55128;50.230;18.944;2023-08-08T23:23:27;3.00;;;1.00;;
63534;SDS011;55128;50.230;18.944;2023-08-08T23:28:27;2.25;;;1.50;;
63534;SDS011;55128;50.230;18.944;2023-08-08T23:33:28;3.90;;;2.10;;
63534;SDS011;55128;50.230;18.944;2023-08-08T23:38:28;3.85;;;2.50;;
63534;SDS011;55128;50.230;18.944;2023-08-08T23:43:29;5.15;;;2.90;;
63534;SDS011;55128;50.230;18.944;2023-08-08T23:48:30;7.03;;;2.95;;
63534;SDS011;55128;50.230;18.944;2023-08-08T23:53:32;4.38;;;2.92;;
63534;SDS011;55128;50.230;18.944;2023-08-08T23:58:32;4.10;;;2.40;;
